Time;durP1;ratioP1;P1;durP2;ratioP2;P2;SDS_P1;SDS_P2;PMS_P1;PMS_P2;Temp;Humidity;BMP_temperature;BMP_pressure;BME280_temperature;BME280_humidity;BME280_pressure;Samples;Min_cycle;Max_cycle;Signal;HPM_P1;HPM_P2
2022/09/09 00:08:14;;;;;;;7.38;5.07;;;;;;;;;;5111892;27;20385;-71
2022/09/09 00:11:22;;;;;;;9.30;5.40;;;;;;;;;;5111837;27;20632;-70
2022/09/09 00:14:40;;;;;;;9.50;5.65;;;;;;;;;;5112274;27;20385;-70
2022/09/09 00:17:13;;;;;;;10.45;5.90;;;;;;;;;;5111445;28;20035;-70
2022/09/09 00:19:50;;;;;;;8.07;5.68;;;;;;;;;;5111085;28;20024;-71
2022/09/09 00:22:21;;;;;;;9.98;5.35;;;;;;;;;;5111473;28;20023;-70
2022/09/09 00:24:47;;;;;;;7.30;5.10;;;;;;;;;;5110792;28;20442;-71
2022/09/09 00:30:14;;;;;;;8.23;5.00;;;;;;;;;;5111540;27;21026;-70
2022/09/09 00:32:40;;;;;;;9.98;6.07;;;;;;;;;;5111226;28;20035;-70
2022/09/09 00:35:25;;;;;;;12.15;6.55;;;;;;;;;;5111282;28;20028;-70
2022/09/09 00:37:53;;;;;;;8.93;6.40;;;;;;;;;;5111245;28;20038;-71
2022/09/09 00:40:40;;;;;;;11.00;6.45;;;;;;;;;;5110853;28;20012;-71
2022/09/09 00:43:33;;;;;;;11.30;5.75;;;;;;;;;;5111640;27;20631;-72
2022/09/09 00:46:11;;;;;;;11.70;5.28;;;;;;;;;;5110972;28;20027;-72
2022/09/09 00:48:56;;;;;;;7.47;5.32;;;;;;;;;;5127129;28;20030;-72
2022/09/09 00:52:59;;;;;;;7.75;5.32;;;;;;;;;;5111087;27;20442;-70
2022/09/09 00:55:25;;;;;;;9.25;5.25;;;;;;;;;;5111466;28;20031;-70
2022/09/09 01:00:27;;;;;;;7.88;5.15;;;;;;;;;;5111164;27;20113;-70
2022/09/09 01:02:53;;;;;;;7.80;5.47;;;;;;;;;;5111362;28;20020;-70
2022/09/09 01:05:19;;;;;;;8.65;5.13;;;;;;;;;;5111234;28;20027;-71
2022/09/09 01:08:02;;;;;;;10.70;5.40;;;;;;;;;;5111124;27;20986;-71
2022/09/09 01:10:38;;;;;;;9.05;5.60;;;;;;;;;;5111440;28;20471;-71
2022/09/09 01:13:10;;;;;;;10.27;5.93;;;;;;;;;;5111434;28;20524;-71
2022/09/09 01:15:38;;;;;;;8.45;5.93;;;;;;;;;;5110894;28;20383;-70
2022/09/09 01:18:06;;;;;;;8.27;5.28;;;;;;;;;;5111165;28;20464;-70
2022/09/09 01:21:15;;;;;;;8.85;6.03;;;;;;;;;;5111714;27;20397;-71
2022/09/09 01:24:00;;;;;;;9.75;6.25;;;;;;;;;;5111915;28;20414;-70
2022/09/09 01:30:13;;;;;;;9.23;6.05;;;;;;;;;;5111007;27;20397;-70
2022/09/09 01:32:44;;;;;;;8.35;5.97;;;;;;;;;;5110122;28;20028;-70
2022/09/09 01:36:35;;;;;;;8.68;5.82;;;;;;;;;;5111248;27;20409;-70
2022/09/09 01:39:01;;;;;;;8.00;5.60;;;;;;;;;;5111700;28;20420;-70
2022/09/09 01:41:28;;;;;;;8.35;5.70;;;;;;;;;;5111556;28;20019;-71
2022/09/09 01:45:49;;;;;;;11.32;5.72;;;;;;;;;;5111870;27;20401;-70
2022/09/09 01:49:35;;;;;;;7.82;4.75;;;;;;;;;;5111229;27;20594;-71
2022/09/09 01:53:05;;;;;;;8.65;4.45;;;;;;;;;;5111397;27;20397;-70
2022/09/09 01:57:47;;;;;;;8.57;6.15;;;;;;;;;;5110978;27;20550;-70
2022/09/09 02:00:14;;;;;;;9.65;5.55;;;;;;;;;;5111612;28;20023;-70
2022/09/09 02:02:55;;;;;;;10.65;5.57;;;;;;;;;;5111601;28;20016;-70
2022/09/09 02:05:56;;;;;;;9.98;6.47;;;;;;;;;;5111772;27;20565;-71
2022/09/09 02:09:41;;;;;;;8.95;6.03;;;;;;;;;;5112049;27;20565;-70
2022/09/09 02:13:17;;;;;;;14.60;6.30;;;;;;;;;;5111750;27;20437;-70
2022/09/09 02:15:48;;;;;;;8.10;5.40;;;;;;;;;;5111569;28;20058;-70
2022/09/09 02:20:16;;;;;;;8.85;5.78;;;;;;;;;;5111463;27;20408;-70
2022/09/09 02:22:44;;;;;;;9.48;6.03;;;;;;;;;;5111460;28;20027;-70
2022/09/09 02:25:13;;;;;;;8.05;5.68;;;;;;;;;;5110815;28;20024;-70
2022/09/09 02:28:25;;;;;;;10.50;5.72;;;;;;;;;;5111831;27;20381;-72
2022/09/09 02:31:09;;;;;;;7.63;5.63;;;;;;;;;;5111865;27;20388;-71
2022/09/09 02:35:01;;;;;;;9.95;7.07;;;;;;;;;;5111576;27;20994;-70
2022/09/09 02:37:31;;;;;;;8.20;6.22;;;;;;;;;;5110144;28;20450;-70
2022/09/09 02:39:57;;;;;;;11.20;6.43;;;;;;;;;;5110874;28;20012;-71
2022/09/09 02:42:23;;;;;;;8.18;5.78;;;;;;;;;;5111274;28;20103;-70
2022/09/09 02:44:50;;;;;;;9.48;6.30;;;;;;;;;;5111222;28;20096;-70
2022/09/09 02:47:36;;;;;;;9.27;6.88;;;;;;;;;;5110771;28;20034;-71
2022/09/09 02:50:39;;;;;;;12.38;6.47;;;;;;;;;;5111668;27;20426;-70
2022/09/09 02:57:47;;;;;;;8.82;6.13;;;;;;;;;;5112005;27;20557;-70
2022/09/09 03:01:32;;;;;;;9.35;6.13;;;;;;;;;;5111026;27;20945;-71
2022/09/09 03:07:30;;;;;;;8.40;6.30;;;;;;;;;;5111334;27;20517;-71
2022/09/09 03:09:56;;;;;;;7.85;5.20;;;;;;;;;;5111605;28;20024;-70
2022/09/09 03:12:22;;;;;;;8.65;6.10;;;;;;;;;;5111305;28;20020;-70
2022/09/09 03:14:49;;;;;;;10.00;6.45;;;;;;;;;;5110866;28;20510;-70
2022/09/09 03:17:15;;;;;;;9.65;6.00;;;;;;;;;;5111201;28;20047;-70
2022/09/09 03:20:41;;;;;;;11.10;6.18;;;;;;;;;;5111727;27;21077;-70
2022/09/09 03:23:08;;;;;;;11.52;6.35;;;;;;;;;;5110042;28;20027;-71
2022/09/09 03:25:35;;;;;;;11.25;7.03;;;;;;;;;;5111260;28;20051;-70
2022/09/09 03:28:02;;;;;;;10.02;6.95;;;;;;;;;;5111272;28;20022;-70
2022/09/09 03:30:28;;;;;;;8.85;6.68;;;;;;;;;;5111187;28;20058;-70
2022/09/09 03:32:57;;;;;;;9.95;6.60;;;;;;;;;;5111158;28;20085;-70
2022/09/09 03:38:13;;;;;;;10.63;6.93;;;;;;;;;;5111530;27;20385;-70
2022/09/09 03:40:39;;;;;;;12.20;6.88;;;;;;;;;;5111322;28;20020;-71
2022/09/09 03:44:36;;;;;;;13.50;7.25;;;;;;;;;;5111426;27;20549;-71
2022/09/09 03:49:03;;;;;;;9.35;7.03;;;;;;;;;;5111531;27;20384;-70
2022/09/09 03:53:27;;;;;;;9.18;6.28;;;;;;;;;;5111479;27;21077;-70
2022/09/09 03:55:55;;;;;;;12.40;7.38;;;;;;;;;;5110909;28;20028;-71
2022/09/09 03:58:23;;;;;;;10.20;6.40;;;;;;;;;;5111299;28;20027;-71
2022/09/09 04:01:14;;;;;;;10.25;6.68;;;;;;;;;;5111975;27;20558;-71
2022/09/09 04:03:41;;;;;;;10.02;6.65;;;;;;;;;;5111165;28;20048;-71
2022/09/09 04:07:01;;;;;;;11.98;6.65;;;;;;;;;;5112045;27;20457;-71
2022/09/09 04:09:27;;;;;;;8.45;5.72;;;;;;;;;;5111497;28;20023;-71
2022/09/09 04:12:30;;;;;;;8.85;6.50;;;;;;;;;;5112178;27;20400;-71
2022/09/09 04:14:56;;;;;;;10.98;6.25;;;;;;;;;;5111355;28;20020;-71
2022/09/09 04:17:22;;;;;;;8.77;6.20;;;;;;;;;;5110939;28;20476;-71
2022/09/09 04:19:49;;;;;;;9.40;5.82;;;;;;;;;;5111225;28;20435;-71
2022/09/09 04:22:15;;;;;;;12.18;6.75;;;;;;;;;;5111375;28;20024;-70
2022/09/09 04:26:46;;;;;;;10.57;7.15;;;;;;;;;;5111903;27;20392;-71
2022/09/09 04:32:33;;;;;;;10.82;6.93;;;;;;;;;;5111073;27;20112;-71
2022/09/09 04:34:59;;;;;;;9.48;6.50;;;;;;;;;;5111346;28;20387;-71
2022/09/09 04:37:25;;;;;;;11.10;6.38;;;;;;;;;;5092976;28;20103;-72
2022/09/09 04:39:51;;;;;;;7.95;5.57;;;;;;;;;;5110712;28;20108;-71
2022/09/09 04:44:27;;;;;;;13.07;7.28;;;;;;;;;;5110301;27;20847;-71
2022/09/09 04:48:12;;;;;;;15.20;7.32;;;;;;;;;;5109831;27;20401;-71
2022/09/09 04:51:33;;;;;;;104.53;94.95;;;;;;;;;;5110129;27;20613;-72
2022/09/09 04:53:59;;;;;;;12.63;6.63;;;;;;;;;;5109149;28;20020;-71
2022/09/09 04:56:28;;;;;;;9.63;6.68;;;;;;;;;;5109939;28;20016;-71
2022/09/09 04:58:55;;;;;;;11.18;6.75;;;;;;;;;;5110524;28;20377;-72
2022/09/09 05:01:22;;;;;;;9.27;5.93;;;;;;;;;;5108426;28;20458;-72
2022/09/09 05:04:19;;;;;;;10.27;6.15;;;;;;;;;;5109429;27;20667;-70
2022/09/09 05:06:45;;;;;;;8.95;6.38;;;;;;;;;;5109031;28;20028;-71
2022/09/09 05:09:11;;;;;;;9.73;6.75;;;;;;;;;;5109942;28;20019;-71
2022/09/09 05:11:38;;;;;;;10.20;6.47;;;;;;;;;;5124898;28;20047;-72
2022/09/09 05:14:04;;;;;;;8.73;5.80;;;;;;;;;;5108505;28;20055;-72
2022/09/09 05:16:31;;;;;;;8.38;5.97;;;;;;;;;;5109609;28;20433;-72
2022/09/09 05:24:33;;;;;;;11.70;6.50;;;;;;;;;;5111653;27;20445;-72
2022/09/09 05:27:01;;;;;;;9.73;5.55;;;;;;;;;;5126779;28;20051;-73
2022/09/09 05:29:28;;;;;;;9.57;6.30;;;;;;;;;;5110567;28;20095;-72
2022/09/09 05:32:34;;;;;;;11.20;6.75;;;;;;;;;;5111507;27;20405;-72
2022/09/09 05:35:01;;;;;;;11.43;6.80;;;;;;;;;;5110622;28;20515;-72
2022/09/09 05:39:03;;;;;;;12.10;8.27;;;;;;;;;;5091614;27;20518;-72
2022/09/09 05:41:46;;;;;;;11.10;8.18;;;;;;;;;;5111016;27;20789;-73
2022/09/09 05:44:13;;;;;;;12.07;7.90;;;;;;;;;;5111354;28;20027;-72
2022/09/09 05:46:39;;;;;;;11.15;7.03;;;;;;;;;;5111247;28;20024;-72
2022/09/09 05:50:54;;;;;;;11.02;7.00;;;;;;;;;;5111411;27;20637;-72
2022/09/09 05:53:20;;;;;;;12.60;7.40;;;;;;;;;;5110001;28;20028;-72
2022/09/09 05:55:47;;;;;;;10.40;6.57;;;;;;;;;;5110828;28;20468;-72
2022/09/09 05:58:15;;;;;;;14.10;7.13;;;;;;;;;;5111210;28;20023;-71
2022/09/09 06:00:41;;;;;;;11.25;6.15;;;;;;;;;;5111053;28;20024;-71
2022/09/09 06:03:09;;;;;;;13.15;6.10;;;;;;;;;;5110621;28;20069;-71
2022/09/09 06:05:57;;;;;;;12.80;6.25;;;;;;;;;;5111378;27;20377;-71
2022/09/09 06:13:50;;;;;;;10.95;6.30;;;;;;;;;;5111557;27;20481;-70
2022/09/09 06:16:17;;;;;;;8.65;6.07;;;;;;;;;;5111009;28;20052;-72
2022/09/09 06:18:44;;;;;;;8.80;5.90;;;;;;;;;;5110468;28;20093;-71
2022/09/09 06:21:15;;;;;;;8.95;6.00;;;;;;;;;;5126348;28;20020;-70
2022/09/09 06:24:19;;;;;;;9.02;5.32;;;;;;;;;;5109965;27;20449;-71
2022/09/09 06:27:08;;;;;;;8.18;5.68;;;;;;;;;;5070034;28;20552;-71
2022/09/09 06:33:51;;;;;;;8.13;5.25;;;;;;;;;;5108681;27;20400;-71
2022/09/09 06:36:19;;;;;;;8.52;5.38;;;;;;;;;;5109124;28;20368;-71
2022/09/09 06:42:03;;;;;;;7.38;4.93;;;;;;;;;;5109772;27;20905;-72
2022/09/09 06:45:53;;;;;;;10.07;5.80;;;;;;;;;;5109520;27;20780;-71
2022/09/09 06:48:19;;;;;;;9.57;5.63;;;;;;;;;;5089203;28;20103;-72
2022/09/09 06:50:46;;;;;;;8.50;5.00;;;;;;;;;;5089336;28;20024;-72
2022/09/09 06:54:45;;;;;;;9.80;5.65;;;;;;;;;;5070582;28;20387;-71
2022/09/09 06:59:42;;;;;;;14.73;5.15;;;;;;;;;;5110316;27;20473;-72
2022/09/09 07:02:24;;;;;;;7.78;4.90;;;;;;;;;;5111237;27;20592;-72
2022/09/09 07:04:51;;;;;;;8.15;5.30;;;;;;;;;;5109609;28;20020;-72
2022/09/09 07:07:17;;;;;;;8.30;5.13;;;;;;;;;;5110479;28;20023;-72
2022/09/09 07:10:14;;;;;;;6.78;4.47;;;;;;;;;;5111199;27;20414;-71
2022/09/09 07:12:55;;;;;;;7.35;4.85;;;;;;;;;;5110465;27;20388;-71
2022/09/09 07:16:37;;;;;;;7.75;5.22;;;;;;;;;;5109328;27;20389;-72
2022/09/09 07:19:04;;;;;;;7.35;5.13;;;;;;;;;;5109878;28;20019;-72
2022/09/09 07:21:30;;;;;;;7.90;4.30;;;;;;;;;;5109107;28;20111;-72
2022/09/09 07:24:41;;;;;;;7.55;4.80;;;;;;;;;;5110863;27;20396;-74
2022/09/09 07:27:08;;;;;;;6.35;4.22;;;;;;;;;;5110357;28;20519;-73
2022/09/09 07:29:34;;;;;;;7.10;4.85;;;;;;;;;;5109425;28;20082;-75
2022/09/09 07:32:02;;;;;;;6.75;4.05;;;;;;;;;;5111136;28;20049;-74
2022/09/09 07:34:29;;;;;;;6.72;4.20;;;;;;;;;;5110509;28;20023;-75
2022/09/09 07:36:57;;;;;;;6.55;4.20;;;;;;;;;;5110978;28;20053;-72
2022/09/09 07:40:10;;;;;;;7.72;4.95;;;;;;;;;;5070938;28;20399;-73
2022/09/09 07:42:37;;;;;;;8.18;5.00;;;;;;;;;;5070235;28;20027;-73
2022/09/09 07:46:28;;;;;;;10.43;5.07;;;;;;;;;;5111276;27;20455;-71
2022/09/09 07:48:55;;;;;;;7.93;4.60;;;;;;;;;;5110575;28;20499;-71
2022/09/09 07:51:26;;;;;;;6.78;4.60;;;;;;;;;;5109722;28;20434;-72
2022/09/09 07:55:11;;;;;;;12.15;4.63;;;;;;;;;;5091092;27;20895;-71
2022/09/09 07:57:37;;;;;;;6.82;4.38;;;;;;;;;;5090810;28;20361;-72
2022/09/09 08:02:00;;;;;;;7.00;4.68;;;;;;;;;;5111096;27;21015;-71
2022/09/09 08:06:22;;;;;;;7.43;4.13;;;;;;;;;;5110398;27;20109;-72
2022/09/09 08:08:51;;;;;;;6.55;4.32;;;;;;;;;;5111139;28;20046;-72
2022/09/09 08:11:17;;;;;;;7.38;5.03;;;;;;;;;;5110856;28;20024;-71
2022/09/09 08:13:44;;;;;;;6.68;4.55;;;;;;;;;;5111080;28;20020;-71
2022/09/09 08:16:12;;;;;;;6.82;4.55;;;;;;;;;;5094680;28;20050;-71
2022/09/09 08:18:39;;;;;;;6.88;4.40;;;;;;;;;;5090528;28;20048;-71
2022/09/09 08:21:11;;;;;;;14.23;5.65;;;;;;;;;;5090476;28;20123;-71
2022/09/09 08:26:28;;;;;;;8.63;4.82;;;;;;;;;;5132000;27;20114;-72
2022/09/09 08:28:56;;;;;;;7.82;4.60;;;;;;;;;;5130410;28;20023;-72
2022/09/09 08:33:12;;;;;;;8.13;4.25;;;;;;;;;;5152383;27;20469;-71
2022/09/09 08:35:39;;;;;;;8.02;4.65;;;;;;;;;;5131699;28;20453;-70
2022/09/09 08:38:05;;;;;;;7.00;4.47;;;;;;;;;;5131015;28;20030;-70
2022/09/09 08:40:35;;;;;;;6.43;4.10;;;;;;;;;;5131575;28;20034;-71
2022/09/09 08:46:40;;;;;;;6.53;3.70;;;;;;;;;;5110879;27;20388;-72
2022/09/09 08:49:23;;;;;;;7.82;3.92;;;;;;;;;;5110951;28;20388;-72
2022/09/09 08:51:49;;;;;;;;;;;;;;;;;;5110832;28;20023;-71
2022/09/09 08:54:16;;;;;;;10.50;4.07;;;;;;;;;;5110952;28;19923;-71
2022/09/09 08:56:42;;;;;;;7.32;4.28;;;;;;;;;;5111024;28;20361;-71
2022/09/09 08:59:10;;;;;;;7.97;4.38;;;;;;;;;;5091973;28;20021;-72
2022/09/09 09:03:05;;;;;;;6.88;4.07;;;;;;;;;;5069228;28;20399;-69
2022/09/09 09:05:48;;;;;;;5.80;3.72;;;;;;;;;;5042475;28;20104;-71
2022/09/09 09:08:14;;;;;;;5.70;3.60;;;;;;;;;;5045447;28;20064;-72
2022/09/09 09:11:50;;;;;;;6.78;4.53;;;;;;;;;;5059767;28;20420;-73
2022/09/09 09:14:23;;;;;;;6.13;3.45;;;;;;;;;;5046549;28;20052;-72
2022/09/09 09:16:49;;;;;;;6.70;4.13;;;;;;;;;;5048097;28;20433;-72
2022/09/09 09:19:16;;;;;;;6.38;4.40;;;;;;;;;;5047381;28;20113;-73
2022/09/09 09:23:41;;;;;;;7.85;4.00;;;;;;;;;;5108408;27;20608;-70
2022/09/09 09:26:11;;;;;;;5.25;3.50;;;;;;;;;;5108682;28;20089;-70
2022/09/09 09:28:37;;;;;;;7.80;4.10;;;;;;;;;;5109169;28;20110;-70
2022/09/09 09:31:13;;;;;;;7.85;4.05;;;;;;;;;;5110324;28;20099;-74
2022/09/09 09:33:52;;;;;;;13.73;4.65;;;;;;;;;;5110141;28;20016;-73
2022/09/09 09:36:19;;;;;;;7.35;4.00;;;;;;;;;;5120653;28;20401;-72
2022/09/09 09:39:01;;;;;;;5.97;3.92;;;;;;;;;;5108045;28;20024;-72
2022/09/09 09:42:33;;;;;;;5.45;3.60;;;;;;;;;;5068020;28;20403;-71
2022/09/09 09:47:10;;;;;;;10.63;3.95;;;;;;;;;;5108845;27;20668;-71
2022/09/09 09:49:36;;;;;;;7.82;3.97;;;;;;;;;;5108902;28;20027;-71
2022/09/09 09:52:07;;;;;;;6.53;3.58;;;;;;;;;;5109924;28;20024;-72
2022/09/09 09:54:42;;;;;;;10.07;5.97;;;;;;;;;;5110222;28;20019;-71
2022/09/09 09:57:10;;;;;;;7.53;4.60;;;;;;;;;;5110442;28;20468;-71
2022/09/09 09:59:38;;;;;;;6.97;4.20;;;;;;;;;;5110036;28;20020;-72
2022/09/09 10:02:14;;;;;;;9.15;5.45;;;;;;;;;;5109667;28;20115;-71
2022/09/09 10:04:41;;;;;;;9.30;5.20;;;;;;;;;;5110097;28;20103;-71
2022/09/09 10:07:19;;;;;;;8.75;4.82;;;;;;;;;;5106835;28;20683;-71
2022/09/09 10:10:38;;;;;;;8.10;4.10;;;;;;;;;;5110381;27;20984;-71
2022/09/09 10:13:28;;;;;;;9.93;4.00;;;;;;;;;;5110077;28;20102;-71
2022/09/09 10:16:09;;;;;;;7.05;4.13;;;;;;;;;;5081714;28;20040;-71
2022/09/09 10:18:54;;;;;;;7.00;4.95;;;;;;;;;;5110516;28;20024;-71
2022/09/09 10:21:43;;;;;;;8.93;4.30;;;;;;;;;;5107492;28;20040;-71
2022/09/09 10:24:17;;;;;;;6.38;3.80;;;;;;;;;;5108110;28;20061;-71
2022/09/09 10:26:49;;;;;;;8.80;4.30;;;;;;;;;;5107644;28;20023;-71
2022/09/09 10:29:16;;;;;;;8.93;4.70;;;;;;;;;;5109342;28;20043;-71
2022/09/09 10:31:42;;;;;;;9.80;4.18;;;;;;;;;;5103145;28;20138;-71
2022/09/09 10:34:18;;;;;;;6.00;3.75;;;;;;;;;;5109124;28;20546;-70
2022/09/09 10:36:46;;;;;;;10.50;4.75;;;;;;;;;;5108956;28;20023;-71
2022/09/09 10:39:18;;;;;;;8.05;4.00;;;;;;;;;;5106918;28;20024;-71
2022/09/09 10:42:03;;;;;;;6.22;3.60;;;;;;;;;;5108828;28;20519;-71
2022/09/09 10:44:35;;;;;;;6.75;3.55;;;;;;;;;;5109924;28;20152;-74
2022/09/09 10:47:20;;;;;;;8.05;4.03;;;;;;;;;;5109247;28;20032;-77
2022/09/09 10:49:55;;;;;;;6.82;4.07;;;;;;;;;;5109063;28;20031;-70
2022/09/09 10:52:37;;;;;;;7.05;3.97;;;;;;;;;;5106577;28;20077;-71
2022/09/09 10:55:12;;;;;;;7.43;4.63;;;;;;;;;;5106807;28;20047;-71
2022/09/09 10:57:51;;;;;;;7.93;4.47;;;;;;;;;;5107868;28;20028;-71
2022/09/09 11:00:18;;;;;;;5.85;3.33;;;;;;;;;;5108757;28;20081;-71
2022/09/09 11:02:44;;;;;;;6.35;4.20;;;;;;;;;;5109283;28;20012;-79
2022/09/09 11:05:20;;;;;;;6.65;3.58;;;;;;;;;;5108678;28;20035;-78
2022/09/09 11:08:00;;;;;;;7.57;4.00;;;;;;;;;;5109834;28;20141;-78
2022/09/09 11:10:35;;;;;;;7.60;4.85;;;;;;;;;;5109072;28;20075;-76
2022/09/09 11:13:04;;;;;;;8.32;4.30;;;;;;;;;;5087347;28;20115;-77
2022/09/09 11:15:41;;;;;;;6.90;4.40;;;;;;;;;;5086278;28;20028;-79
2022/09/09 11:18:11;;;;;;;10.88;4.97;;;;;;;;;;5086316;28;20028;-79
2022/09/09 11:20:38;;;;;;;7.18;4.15;;;;;;;;;;5081019;28;20469;-79
2022/09/09 11:23:21;;;;;;;7.82;4.90;;;;;;;;;;5080390;28;20028;-77
2022/09/09 11:25:53;;;;;;;9.45;4.82;;;;;;;;;;5072381;28;20377;-78
2022/09/09 11:28:22;;;;;;;9.35;4.78;;;;;;;;;;5073708;28;20025;-78
2022/09/09 11:31:01;;;;;;;10.02;5.65;;;;;;;;;;5089873;28;20041;-78
2022/09/09 11:33:30;;;;;;;7.30;5.00;;;;;;;;;;5073167;28;20075;-78
2022/09/09 11:36:11;;;;;;;8.30;4.70;;;;;;;;;;5073606;28;20032;-78
2022/09/09 11:38:40;;;;;;;8.95;5.57;;;;;;;;;;5070920;28;20220;-78
2022/09/09 11:41:09;;;;;;;8.70;5.47;;;;;;;;;;5075205;28;20048;-79
2022/09/09 11:43:43;;;;;;;9.50;5.70;;;;;;;;;;5075685;28;20027;-78
2022/09/09 11:46:10;;;;;;;8.30;5.25;;;;;;;;;;5075389;28;20020;-78
2022/09/09 11:48:45;;;;;;;9.05;5.78;;;;;;;;;;5074235;28;20028;-77
2022/09/09 11:53:05;;;;;;;11.25;5.53;;;;;;;;;;5111310;27;20773;-78
2022/09/09 11:55:33;;;;;;;9.70;6.20;;;;;;;;;;5111133;28;20032;-78
2022/09/09 11:58:11;;;;;;;9.50;5.93;;;;;;;;;;5111281;28;20019;-77
2022/09/09 12:00:40;;;;;;;10.40;6.85;;;;;;;;;;5111174;28;20476;-78
2022/09/09 12:03:08;;;;;;;8.75;6.32;;;;;;;;;;5110745;28;20058;-77
2022/09/09 12:05:40;;;;;;;10.02;6.50;;;;;;;;;;5110906;28;20012;-77
2022/09/09 12:08:07;;;;;;;8.65;5.78;;;;;;;;;;5110376;28;20065;-77
2022/09/09 12:10:59;;;;;;;10.80;6.47;;;;;;;;;;5131767;27;20877;-77
2022/09/09 12:13:26;;;;;;;15.10;9.65;;;;;;;;;;5110880;28;20028;-77
2022/09/09 12:15:53;;;;;;;11.10;7.30;;;;;;;;;;5110579;28;20118;-77
2022/09/09 12:18:36;;;;;;;9.65;6.43;;;;;;;;;;5110866;28;20020;-78
2022/09/09 12:21:02;;;;;;;;;;;;;;;;;;5111495;28;20066;-77
2022/09/09 12:23:51;;;;;;;10.38;6.55;;;;;;;;;;5110493;28;19908;-77
2022/09/09 12:26:36;;;;;;;11.73;6.22;;;;;;;;;;5097934;28;20042;-77
2022/09/09 12:29:06;;;;;;;10.63;6.88;;;;;;;;;;5110949;28;20028;-77
2022/09/09 12:31:32;;;;;;;8.82;6.13;;;;;;;;;;5110773;28;20023;-78
2022/09/09 12:34:11;;;;;;;10.50;8.32;;;;;;;;;;5110721;28;20034;-77
2022/09/09 12:36:37;;;;;;;8.68;5.88;;;;;;;;;;5110348;28;20045;-78
2022/09/09 12:39:23;;;;;;;11.73;6.28;;;;;;;;;;5091514;28;20468;-78
2022/09/09 12:41:56;;;;;;;12.00;6.00;;;;;;;;;;5108620;28;20024;-78
2022/09/09 12:44:22;;;;;;;8.52;5.78;;;;;;;;;;5108209;28;20012;-78
2022/09/09 12:46:49;;;;;;;7.85;5.45;;;;;;;;;;5108616;28;20530;-78
2022/09/09 12:49:41;;;;;;;9.82;5.60;;;;;;;;;;5109321;27;20930;-77
2022/09/09 12:52:17;;;;;;;8.90;5.85;;;;;;;;;;5109105;28;20284;-78
2022/09/09 12:54:47;;;;;;;9.23;7.15;;;;;;;;;;5110305;28;20020;-78
2022/09/09 12:57:14;;;;;;;14.75;6.80;;;;;;;;;;5110870;28;20438;-78
2022/09/09 13:01:19;;;;;;;7.80;5.57;;;;;;;;;;5111929;27;20401;-78
2022/09/09 13:03:47;;;;;;;8.45;4.50;;;;;;;;;;5111306;28;20016;-79
2022/09/09 13:07:09;;;;;;;7.53;4.90;;;;;;;;;;5111316;27;20577;-78
2022/09/09 13:09:36;;;;;;;7.35;5.38;;;;;;;;;;5111440;28;20052;-79
2022/09/09 13:12:03;;;;;;;10.15;5.53;;;;;;;;;;5110884;28;20125;-78
2022/09/09 13:14:30;;;;;;;9.10;5.95;;;;;;;;;;5111155;28;20031;-78
2022/09/09 13:16:57;;;;;;;8.45;5.40;;;;;;;;;;5111411;28;20024;-78
2022/09/09 13:19:27;;;;;;;10.13;5.65;;;;;;;;;;5110662;28;20035;-78
2022/09/09 13:21:54;;;;;;;9.30;6.00;;;;;;;;;;5111255;28;20019;-78
2022/09/09 13:24:42;;;;;;;10.30;6.15;;;;;;;;;;5111485;28;20438;-78
2022/09/09 13:27:25;;;;;;;9.73;7.30;;;;;;;;;;5110764;28;20031;-78
2022/09/09 13:29:55;;;;;;;8.10;5.57;;;;;;;;;;5110953;28;20027;-78
2022/09/09 13:32:21;;;;;;;10.27;5.72;;;;;;;;;;5110467;28;20024;-78
2022/09/09 13:35:11;;;;;;;9.55;6.43;;;;;;;;;;5110926;28;20016;-78
2022/09/09 13:37:38;;;;;;;9.35;5.53;;;;;;;;;;5110550;28;20034;-78
2022/09/09 13:40:16;;;;;;;8.32;4.53;;;;;;;;;;5110240;28;20023;-78
2022/09/09 13:42:42;;;;;;;9.02;4.32;;;;;;;;;;5110863;28;20027;-78
2022/09/09 13:45:17;;;;;;;6.80;4.53;;;;;;;;;;5126404;28;20074;-78
2022/09/09 13:47:45;;;;;;;8.07;5.22;;;;;;;;;;5110147;28;20043;-78
2022/09/09 13:50:20;;;;;;;7.82;4.05;;;;;;;;;;5110637;28;20019;-78
2022/09/09 13:52:47;;;;;;;5.82;3.70;;;;;;;;;;5111174;28;20020;-78
2022/09/09 13:55:13;;;;;;;9.95;3.85;;;;;;;;;;5125885;28;20076;-78
2022/09/09 13:57:39;;;;;;;5.43;3.55;;;;;;;;;;5126046;28;20365;-79
2022/09/09 14:00:09;;;;;;;7.10;3.88;;;;;;;;;;5110413;28;20034;-78
2022/09/09 14:02:35;;;;;;;6.78;3.78;;;;;;;;;;5109969;28;20057;-79
2022/09/09 14:05:01;;;;;;;6.20;3.60;;;;;;;;;;5110195;28;20377;-79
2022/09/09 14:07:28;;;;;;;6.18;3.75;;;;;;;;;;5110289;28;20438;-78
2022/09/09 14:09:54;;;;;;;9.32;4.03;;;;;;;;;;5110073;28;20023;-80
2022/09/09 14:12:21;;;;;;;7.57;3.95;;;;;;;;;;5110664;28;20055;-78
2022/09/09 14:14:48;;;;;;;7.75;4.10;;;;;;;;;;5110513;28;20027;-79
2022/09/09 14:17:14;;;;;;;8.68;3.97;;;;;;;;;;5104585;28;20031;-80
2022/09/09 14:19:40;;;;;;;6.70;4.07;;;;;;;;;;5096773;28;20020;-79
2022/09/09 14:22:06;;;;;;;6.88;3.47;;;;;;;;;;5095919;28;20024;-79
2022/09/09 14:24:33;;;;;;;7.85;2.95;;;;;;;;;;5096441;28;20025;-80
2022/09/09 14:26:59;;;;;;;6.90;3.35;;;;;;;;;;5096513;28;20036;-80
2022/09/09 14:29:26;;;;;;;5.05;3.10;;;;;;;;;;5111817;28;20024;-79
2022/09/09 14:31:52;;;;;;;6.75;3.90;;;;;;;;;;5096427;28;20020;-79
2022/09/09 14:34:18;;;;;;;5.70;3.40;;;;;;;;;;5096238;28;20019;-78
2022/09/09 14:36:45;;;;;;;7.28;3.35;;;;;;;;;;5095613;28;20464;-78
2022/09/09 14:39:11;;;;;;;6.20;3.25;;;;;;;;;;5096106;28;20472;-78
2022/09/09 14:41:37;;;;;;;6.60;3.72;;;;;;;;;;5096092;28;20024;-79
2022/09/09 14:44:04;;;;;;;5.18;3.30;;;;;;;;;;5111356;28;20030;-79
2022/09/09 14:46:30;;;;;;;8.43;3.10;;;;;;;;;;5095913;28;20111;-78
2022/09/09 14:48:57;;;;;;;6.72;3.50;;;;;;;;;;5095899;28;20500;-78
2022/09/09 14:51:24;;;;;;;6.72;3.72;;;;;;;;;;5095501;28;20039;-78
2022/09/09 14:53:54;;;;;;;6.25;3.53;;;;;;;;;;5095972;28;20073;-78
2022/09/09 14:56:22;;;;;;;6.50;3.30;;;;;;;;;;5096080;28;20043;-78
2022/09/09 14:58:49;;;;;;;8.48;3.47;;;;;;;;;;5111126;28;20473;-79
2022/09/09 15:01:16;;;;;;;7.30;3.25;;;;;;;;;;5111316;28;20484;-78
2022/09/09 15:03:43;;;;;;;10.05;4.57;;;;;;;;;;5095757;28;20101;-79
2022/09/09 15:06:14;;;;;;;7.45;3.70;;;;;;;;;;5094980;28;20492;-78
2022/09/09 15:08:41;;;;;;;7.40;4.00;;;;;;;;;;5111352;28;20438;-79
2022/09/09 15:11:07;;;;;;;7.15;3.88;;;;;;;;;;5095233;28;20081;-78
2022/09/09 15:13:34;;;;;;;7.85;3.30;;;;;;;;;;5095400;28;20028;-78
2022/09/09 15:16:10;;;;;;;10.13;4.43;;;;;;;;;;5095342;28;20461;-78
2022/09/09 15:18:40;;;;;;;5.32;3.83;;;;;;;;;;5094944;28;20060;-79
2022/09/09 15:21:06;;;;;;;8.13;4.30;;;;;;;;;;5095321;28;20031;-77
2022/09/09 15:23:33;;;;;;;5.43;3.33;;;;;;;;;;5095223;28;20016;-78
2022/09/09 15:25:59;;;;;;;6.72;3.53;;;;;;;;;;5094702;28;20460;-78
2022/09/09 15:28:25;;;;;;;4.97;3.40;;;;;;;;;;5094202;28;20027;-78
2022/09/09 15:30:52;;;;;;;7.95;4.32;;;;;;;;;;5095040;28;20052;-78
2022/09/09 15:33:18;;;;;;;7.07;3.90;;;;;;;;;;5094654;28;20046;-78
2022/09/09 15:35:45;;;;;;;10.25;3.38;;;;;;;;;;5095019;28;20042;-79
2022/09/09 15:38:12;;;;;;;7.70;3.97;;;;;;;;;;5094914;28;20499;-78
2022/09/09 15:40:39;;;;;;;5.30;3.30;;;;;;;;;;5094662;28;20025;-79
2022/09/09 15:43:05;;;;;;;6.82;3.60;;;;;;;;;;5094920;28;20028;-79
2022/09/09 15:45:33;;;;;;;7.57;3.28;;;;;;;;;;5094706;28;20036;-79
2022/09/09 15:48:00;;;;;;;6.93;3.58;;;;;;;;;;5094336;28;20024;-79
2022/09/09 15:50:26;;;;;;;7.53;3.67;;;;;;;;;;5094968;28;20031;-79
2022/09/09 15:52:52;;;;;;;7.60;3.45;;;;;;;;;;5094696;28;20031;-79
2022/09/09 15:55:24;;;;;;;6.53;3.35;;;;;;;;;;5094309;28;20472;-79
2022/09/09 15:57:52;;;;;;;6.82;3.72;;;;;;;;;;5094584;28;20103;-79
2022/09/09 16:00:18;;;;;;;12.70;5.40;;;;;;;;;;5094202;28;20050;-79
2022/09/09 16:02:45;;;;;;;8.48;4.70;;;;;;;;;;5094972;28;20024;-79
2022/09/09 16:05:11;;;;;;;7.38;4.78;;;;;;;;;;5094270;28;20196;-79
2022/09/09 16:07:37;;;;;;;7.35;3.97;;;;;;;;;;5094131;28;20471;-79
2022/09/09 16:10:03;;;;;;;6.38;3.75;;;;;;;;;;5110067;28;20377;-78
2022/09/09 16:12:29;;;;;;;6.60;3.50;;;;;;;;;;5094598;28;20024;-79
2022/09/09 16:14:55;;;;;;;9.68;3.53;;;;;;;;;;5094130;28;20047;-79
2022/09/09 16:17:21;;;;;;;5.45;3.40;;;;;;;;;;5094513;28;20016;-79
2022/09/09 16:19:47;;;;;;;7.10;3.67;;;;;;;;;;5094202;28;20024;-80
2022/09/09 16:22:15;;;;;;;7.43;4.00;;;;;;;;;;5093830;28;20024;-81
2022/09/09 16:24:41;;;;;;;10.45;4.30;;;;;;;;;;5093916;28;20028;-79
2022/09/09 16:27:08;;;;;;;7.80;4.95;;;;;;;;;;5094324;28;20046;-78
2022/09/09 16:29:34;;;;;;;10.45;5.15;;;;;;;;;;5093856;28;20024;-80
2022/09/09 16:32:00;;;;;;;7.28;4.35;;;;;;;;;;5094045;28;20068;-80
2022/09/09 16:34:26;;;;;;;7.45;4.38;;;;;;;;;;5093963;28;20023;-78
2022/09/09 16:36:52;;;;;;;6.35;4.00;;;;;;;;;;5093516;28;20024;-80
2022/09/09 16:39:20;;;;;;;7.70;4.57;;;;;;;;;;5093843;28;20377;-80
2022/09/09 16:41:47;;;;;;;10.00;5.45;;;;;;;;;;5093739;28;20027;-80
2022/09/09 16:44:14;;;;;;;9.27;4.28;;;;;;;;;;5093490;28;20020;-80
2022/09/09 16:46:42;;;;;;;8.60;4.80;;;;;;;;;;5093764;28;20039;-80
2022/09/09 16:49:09;;;;;;;7.28;4.75;;;;;;;;;;5109400;28;20031;-80
2022/09/09 16:51:54;;;;;;;9.77;6.20;;;;;;;;;;5093358;28;20111;-80
2022/09/09 16:54:21;;;;;;;10.55;6.03;;;;;;;;;;5093906;28;20091;-80
2022/09/09 16:56:48;;;;;;;12.32;6.53;;;;;;;;;;5093437;28;20031;-79
2022/09/09 16:59:15;;;;;;;34.15;21.02;;;;;;;;;;5093654;28;20077;-79
2022/09/09 17:01:42;;;;;;;14.80;9.38;;;;;;;;;;5093872;28;20367;-80